Time;durP1;ratioP1;P1;durP2;ratioP2;P2;SDS_P1;SDS_P2;PMS_P1;PMS_P2;Temp;Humidity;BMP_temperature;BMP_pressure;BME280_temperature;BME280_humidity;BME280_pressure;Samples;Min_cycle;Max_cycle;Signal;HPM_P1;HPM_P2
2021/07/16 00:02:06;;;;;;;2.87;2.67;;;;;;;13.87;89.56;95641.56;4990855;28;20180;-78
2021/07/16 00:04:32;;;;;;;3.43;3.13;;;;;;;13.81;89.79;95639.59;4990934;28;20200;-79
2021/07/16 00:06:58;;;;;;;2.70;2.50;;;;;;;13.81;89.34;95642.22;4989697;28;20212;-79
2021/07/16 00:09:23;;;;;;;3.40;3.10;;;;;;;13.76;89.03;95641.88;4991095;28;20524;-77
2021/07/16 00:11:48;;;;;;;3.10;2.80;;;;;;;13.71;88.94;95646.78;4992033;28;20187;-77
2021/07/16 00:14:14;;;;;;;4.00;2.80;;;;;;;13.64;89.03;95657.06;4972231;28;20211;-78
2021/07/16 00:16:39;;;;;;;4.80;3.00;;;;;;;13.61;89.32;95652.19;4990938;28;20191;-77
2021/07/16 00:19:05;;;;;;;3.13;2.83;;;;;;;13.56;89.34;95646.63;4991011;28;20188;-79
2021/07/16 00:21:31;;;;;;;4.60;2.93;;;;;;;13.49;89.67;95643.84;4992678;28;20187;-77
2021/07/16 00:23:57;;;;;;;3.20;2.97;;;;;;;13.47;89.53;95647.59;4994205;28;20196;-77
2021/07/16 00:26:22;;;;;;;3.27;2.97;;;;;;;13.44;89.79;95646.16;4992142;28;20233;-77
2021/07/16 00:28:48;;;;;;;2.80;2.60;;;;;;;13.43;90.08;95646.28;4995041;28;20222;-77
2021/07/16 00:31:13;;;;;;;3.60;2.80;;;;;;;13.41;89.95;95649.06;4994004;28;20305;-78
2021/07/16 00:33:39;;;;;;;5.73;3.27;;;;;;;13.39;89.39;95652.81;4977644;28;20207;-77
2021/07/16 00:36:04;;;;;;;3.00;2.80;;;;;;;13.37;89.40;95666.03;4976509;28;20191;-78
2021/07/16 00:38:30;;;;;;;5.17;2.87;;;;;;;13.37;89.34;95667.81;4993807;28;20176;-78
2021/07/16 00:40:55;;;;;;;4.80;3.50;;;;;;;13.34;89.39;95674.19;4993731;28;20183;-78
2021/07/16 00:43:21;;;;;;;3.50;3.17;;;;;;;13.31;89.53;95677.09;4993192;28;20234;-78
2021/07/16 00:45:46;;;;;;;3.80;3.30;;;;;;;13.29;89.56;95671.22;4992359;28;20194;-78
2021/07/16 00:48:11;;;;;;;3.50;3.20;;;;;;;13.27;89.75;95676.63;4994657;28;20208;-79
2021/07/16 00:50:38;;;;;;;4.80;3.40;;;;;;;13.24;90.07;95678.72;4994408;28;20187;-78
2021/07/16 00:53:05;;;;;;;3.90;3.60;;;;;;;13.25;89.57;95669.91;4998605;28;20250;-78
2021/07/16 00:55:31;;;;;;;5.27;3.57;;;;;;;13.18;90.06;95674.94;4994650;28;20679;-78
2021/07/16 00:57:58;;;;;;;4.30;3.60;;;;;;;13.22;89.79;95675.47;4975959;28;20238;-78
2021/07/16 01:00:23;;;;;;;4.10;3.80;;;;;;;13.16;90.13;95678.66;4994788;28;20246;-78
2021/07/16 01:02:50;;;;;;;4.33;3.20;;;;;;;13.15;90.10;95677.84;4978795;28;20683;-77
2021/07/16 01:05:16;;;;;;;3.73;3.43;;;;;;;13.10;89.29;95677.53;4977394;28;20187;-77
2021/07/16 01:07:43;;;;;;;4.33;3.93;;;;;;;13.05;89.71;95674.56;4995421;28;20200;-78
2021/07/16 01:10:10;;;;;;;5.30;3.23;;;;;;;13.02;89.72;95680.13;4995037;28;20644;-78
2021/07/16 01:12:36;;;;;;;5.43;3.40;;;;;;;13.05;89.66;95685.81;4978529;28;20212;-77
2021/07/16 01:15:03;;;;;;;3.80;3.50;;;;;;;13.06;89.66;95681.41;4995485;28;20207;-78
2021/07/16 01:17:32;;;;;;;4.97;3.53;;;;;;;12.97;89.61;95677.97;4968162;28;20238;-76
2021/07/16 01:20:00;;;;;;;3.97;3.63;;;;;;;12.94;89.98;95674.88;4976543;28;20529;-76
2021/07/16 01:22:27;;;;;;;3.47;3.07;;;;;;;12.97;89.99;95680.56;4976834;28;20172;-77
2021/07/16 01:24:53;;;;;;;5.37;3.50;;;;;;;12.99;89.64;95691.69;4975416;28;20181;-77
2021/07/16 01:27:19;;;;;;;5.50;3.57;;;;;;;12.97;89.25;95693.59;4969013;28;20261;-78
2021/07/16 01:29:48;;;;;;;4.63;4.23;;;;;;;12.91;89.80;95693.44;4993270;28;20261;-77
2021/07/16 01:32:17;;;;;;;5.43;3.93;;;;;;;12.58;92.04;95685.50;4991659;28;20556;-77
2021/07/16 01:34:44;;;;;;;4.33;3.40;;;;;;;12.56;92.25;95684.03;4992605;28;20659;-78
2021/07/16 01:37:09;;;;;;;5.27;3.30;;;;;;;12.57;92.37;95685.66;4991696;28;20655;-77
2021/07/16 01:39:34;;;;;;;3.83;3.53;;;;;;;12.55;92.07;95682.41;4993875;28;20325;-78
2021/07/16 01:42:02;;;;;;;4.40;4.00;;;;;;;12.59;92.20;95684.53;4976224;28;20640;-77
2021/07/16 01:44:28;;;;;;;3.97;3.57;;;;;;;12.61;92.68;95682.56;4992716;28;20208;-78
2021/07/16 01:46:53;;;;;;;4.37;3.97;;;;;;;12.62;92.03;95683.38;4976239;28;20746;-78
2021/07/16 01:49:18;;;;;;;3.93;3.63;;;;;;;12.68;91.96;95688.78;4988973;28;20188;-78
2021/07/16 01:51:44;;;;;;;4.73;4.33;;;;;;;12.71;92.13;95685.88;4992151;28;20187;-77
2021/07/16 01:54:09;;;;;;;4.30;3.83;;;;;;;12.76;91.50;95691.44;4993884;28;20203;-78
2021/07/16 01:56:34;;;;;;;4.73;3.33;;;;;;;12.80;91.50;95693.72;4993633;28;20188;-77
2021/07/16 01:59:00;;;;;;;6.23;4.10;;;;;;;12.90;91.17;95686.63;4991315;28;20195;-78
2021/07/16 02:01:25;;;;;;;4.13;3.73;;;;;;;12.99;91.12;95689.06;4992141;28;20180;-78
2021/07/16 02:03:51;;;;;;;3.77;3.47;;;;;;;13.02;91.05;95685.31;4975779;28;20683;-78
2021/07/16 02:06:17;;;;;;;4.77;4.37;;;;;;;13.02;91.19;95687.94;4976074;28;20191;-79
2021/07/16 02:08:42;;;;;;;4.60;4.20;;;;;;;13.02;90.60;95690.53;4991427;28;20208;-77
2021/07/16 02:11:08;;;;;;;5.30;4.03;;;;;;;13.04;91.10;95693.81;4991859;28;20835;-79
2021/07/16 02:13:33;;;;;;;4.27;3.97;;;;;;;13.06;90.99;95694.44;4991972;28;20279;-78
2021/07/16 02:15:59;;;;;;;3.77;3.47;;;;;;;13.03;90.85;95690.38;4992210;28;20210;-76
2021/07/16 02:18:25;;;;;;;7.47;3.93;;;;;;;13.03;91.08;95689.56;4991936;28;20183;-78
2021/07/16 02:20:55;;;;;;;4.30;3.90;;;;;;;13.04;91.09;95685.97;4974813;28;20196;-79
2021/07/16 02:23:25;;;;;;;4.57;4.17;;;;;;;13.05;91.31;95693.63;4984321;28;20257;-78
2021/07/16 02:25:51;;;;;;;5.20;4.00;;;;;;;13.08;91.31;95689.91;4975937;28;20187;-79
2021/07/16 02:28:19;;;;;;;4.70;4.07;;;;;;;13.07;90.91;95684.84;4991592;28;20211;-77
2021/07/16 02:30:45;;;;;;;4.27;3.90;;;;;;;13.07;91.07;95684.84;4990770;28;20676;-78
2021/07/16 02:33:10;;;;;;;4.13;3.83;;;;;;;13.11;90.67;95681.75;4991341;28;20199;-78
2021/07/16 02:35:36;;;;;;;3.83;3.53;;;;;;;13.13;90.76;95686.81;4992958;28;20184;-78
2021/07/16 02:38:03;;;;;;;3.70;3.40;;;;;;;13.14;90.75;95680.63;4991773;28;20259;-78
2021/07/16 02:40:29;;;;;;;3.27;3.07;;;;;;;13.18;90.70;95680.16;4993119;28;20548;-79
2021/07/16 02:42:55;;;;;;;3.63;3.33;;;;;;;13.26;90.90;95688.03;4989407;28;20234;-77
2021/07/16 02:45:22;;;;;;;4.30;3.90;;;;;;;13.42;90.42;95675.97;4991547;28;20180;-78
2021/07/16 02:47:48;;;;;;;5.20;4.80;;;;;;;13.49;90.79;95682.16;4991861;28;20223;-78
2021/07/16 02:50:17;;;;;;;4.83;4.43;;;;;;;13.56;91.12;95686.56;4992159;28;20212;-77
2021/07/16 02:52:43;;;;;;;5.70;4.97;;;;;;;13.60;91.21;95689.66;4991141;28;20698;-79
2021/07/16 02:55:09;;;;;;;5.50;5.00;;;;;;;13.63;91.25;95693.78;4975155;28;20207;-78
2021/07/16 02:57:35;;;;;;;5.30;4.80;;;;;;;13.65;91.09;95697.84;4975185;28;20570;-78
2021/07/16 03:00:01;;;;;;;9.67;5.50;;;;;;;13.67;91.24;95698.47;4991332;28;20176;-78
2021/07/16 03:02:30;;;;;;;5.87;5.27;;;;;;;13.66;91.24;95694.25;4972789;28;20227;-78
2021/07/16 03:04:56;;;;;;;5.93;5.47;;;;;;;13.65;91.35;95700.44;4991146;28;20190;-78
2021/07/16 03:07:21;;;;;;;5.67;5.17;;;;;;;13.63;91.27;95696.38;4991355;28;20214;-78
2021/07/16 03:09:46;;;;;;;6.60;5.60;;;;;;;13.61;91.54;95699.16;4991272;28;20267;-78
2021/07/16 03:12:12;;;;;;;5.87;5.33;;;;;;;13.60;91.50;95697.50;4974567;28;20179;-78
2021/07/16 03:14:37;;;;;;;6.40;5.87;;;;;;;13.56;91.54;95686.56;4990368;28;20591;-79
2021/07/16 03:17:02;;;;;;;7.30;6.40;;;;;;;13.52;91.91;95689.69;4991176;28;20655;-78
2021/07/16 03:19:28;;;;;;;7.03;6.43;;;;;;;13.51;91.86;95691.47;4992460;28;20182;-77
2021/07/16 03:21:53;;;;;;;7.80;7.10;;;;;;;13.51;91.89;95701.06;4974630;28;20275;-77
2021/07/16 03:24:19;;;;;;;7.27;6.53;;;;;;;13.47;91.64;95700.59;4989994;28;20293;-78
2021/07/16 03:26:44;;;;;;;7.40;6.70;;;;;;;13.46;91.58;95698.97;4974502;28;20195;-78
2021/07/16 03:29:09;;;;;;;9.00;8.20;;;;;;;13.45;91.56;95699.94;4991069;28;20549;-78
2021/07/16 03:31:34;;;;;;;6.97;6.27;;;;;;;13.45;91.66;95701.75;4974598;28;20188;-77
2021/07/16 03:34:00;;;;;;;7.50;6.80;;;;;;;13.42;91.48;95702.03;4990411;28;20212;-77
2021/07/16 03:36:25;;;;;;;8.37;6.27;;;;;;;13.39;91.49;95697.16;5006362;28;20195;-78
2021/07/16 03:38:52;;;;;;;8.13;6.53;;;;;;;13.36;91.38;95697.50;4990987;28;20242;-78
2021/07/16 03:41:18;;;;;;;7.50;6.70;;;;;;;13.32;91.36;95696.97;4990608;28;20183;-77
2021/07/16 03:43:43;;;;;;;8.80;7.70;;;;;;;13.29;91.40;95698.13;4991074;28;20298;-78
2021/07/16 03:46:08;;;;;;;8.53;7.73;;;;;;;13.29;91.56;95705.13;4990114;28;20845;-78
2021/07/16 03:48:34;;;;;;;9.33;8.33;;;;;;;13.29;91.82;95705.94;4990851;28;20254;-78
2021/07/16 03:50:59;;;;;;;9.10;8.30;;;;;;;13.34;91.68;95702.88;4991413;28;20184;-79
2021/07/16 03:53:24;;;;;;;9.37;8.47;;;;;;;13.40;91.65;95699.59;4974595;28;20300;-79
2021/07/16 03:55:50;;;;;;;8.03;7.23;;;;;;;13.46;91.45;95698.16;4990747;28;20246;-79
2021/07/16 03:58:15;;;;;;;8.70;7.80;;;;;;;13.47;91.26;95700.59;4994734;28;20187;-78
2021/07/16 04:00:41;;;;;;;9.37;8.13;;;;;;;13.50;91.25;95704.66;4978499;28;20194;-79
2021/07/16 04:03:06;;;;;;;7.87;7.07;;;;;;;13.52;91.09;95703.56;4994598;28;20200;-77
2021/07/16 04:05:32;;;;;;;8.47;7.50;;;;;;;13.70;91.27;95706.00;4978285;28;20539;-78
2021/07/16 04:08:05;;;;;;;7.77;7.00;;;;;;;14.49;90.19;95711.47;4993386;28;20254;-78
2021/07/16 04:10:35;;;;;;;7.33;6.40;;;;;;;15.27;86.69;95706.22;4994446;28;20192;-78
2021/07/16 04:13:06;;;;;;;6.50;5.90;;;;;;;16.18;83.05;95709.84;4977805;28;20199;-78
2021/07/16 04:15:32;;;;;;;5.78;5.38;;;;;;;17.26;78.59;95703.06;4978133;28;20180;-78
2021/07/16 04:17:59;;;;;;;6.10;4.57;;;;;;;18.01;72.97;95708.84;4994065;28;20652;-78
2021/07/16 04:20:26;;;;;;;3.80;3.50;;;;;;;18.84;69.39;95707.22;4977987;28;20209;-79
2021/07/16 04:22:51;;;;;;;4.15;3.75;;;;;;;18.99;66.94;95707.88;4993766;28;20633;-78
2021/07/16 04:25:18;;;;;;;4.20;3.80;;;;;;;18.92;66.64;95710.50;4977710;28;20187;-78
2021/07/16 04:27:44;;;;;;;3.70;3.33;;;;;;;18.17;68.49;95718.28;4991864;28;20200;-78
2021/07/16 04:30:11;;;;;;;3.97;3.67;;;;;;;17.45;71.10;95713.94;4977614;28;20278;-78
2021/07/16 04:32:40;;;;;;;4.07;3.60;;;;;;;17.12;73.17;95724.06;4993526;28;20208;-78
2021/07/16 04:35:06;;;;;;;4.22;3.85;;;;;;;17.31;73.88;95712.16;4977833;28;20188;-77
2021/07/16 04:37:32;;;;;;;4.40;4.05;;;;;;;18.78;69.20;95723.78;4993943;28;20179;-79
2021/07/16 04:39:57;;;;;;;17.60;11.77;;;;;;;20.58;62.86;95727.47;4976566;28;20203;-78
2021/07/16 04:42:22;;;;;;;22.88;18.30;;;;;;;21.75;58.41;95729.09;4977129;28;20246;-78
2021/07/16 04:44:48;;;;;;;16.83;10.88;;;;;;;22.64;55.13;95729.84;4994017;28;20235;-79
2021/07/16 04:47:14;;;;;;;6.03;5.50;;;;;;;23.35;52.90;95734.59;4993523;28;20212;-78
2021/07/16 04:49:39;;;;;;;4.30;3.90;;;;;;;24.14;50.58;95732.72;4975727;28;20188;-78
2021/07/16 04:52:05;;;;;;;7.53;4.93;;;;;;;24.13;49.05;95733.78;4993312;28;20710;-79
2021/07/16 04:54:30;;;;;;;4.45;4.05;;;;;;;24.24;49.56;95734.81;4993951;28;20206;-78
2021/07/16 04:56:55;;;;;;;4.57;4.15;;;;;;;24.99;47.53;95737.63;4987326;28;20211;-78
2021/07/16 04:59:21;;;;;;;4.85;4.45;;;;;;;24.87;47.66;95734.19;4987288;28;20184;-78
2021/07/16 05:01:48;;;;;;;6.22;5.63;;;;;;;23.26;50.77;95737.78;4992859;28;20195;-78
2021/07/16 05:04:13;;;;;;;5.13;4.72;;;;;;;24.17;49.67;95729.59;4980032;28;20191;-77
2021/07/16 05:06:38;;;;;;;6.32;5.00;;;;;;;24.09;49.27;95737.91;5012752;28;20595;-79
2021/07/16 05:09:04;;;;;;;7.90;7.13;;;;;;;24.63;47.97;95741.34;5013653;28;20315;-78
2021/07/16 05:11:30;;;;;;;6.38;5.88;;;;;;;25.24;45.91;95750.66;5000165;28;20648;-79
2021/07/16 05:13:56;;;;;;;5.13;4.72;;;;;;;26.09;45.13;95747.28;4994326;28;20196;-79
2021/07/16 05:16:22;;;;;;;4.88;3.65;;;;;;;26.64;43.34;95746.59;4996318;28;20183;-78
2021/07/16 05:18:47;;;;;;;4.00;3.70;;;;;;;26.51;43.05;95753.06;5000013;28;20238;-79
2021/07/16 05:21:13;;;;;;;4.13;3.30;;;;;;;26.87;41.84;95747.47;4981197;28;20191;-78
2021/07/16 05:23:39;;;;;;;3.45;3.15;;;;;;;25.91;43.83;95744.81;4999495;28;20204;-78
2021/07/16 05:26:05;;;;;;;3.58;3.30;;;;;;;26.53;43.00;95753.63;4996624;28;20180;-79
2021/07/16 05:28:30;;;;;;;4.00;3.70;;;;;;;24.95;46.75;95751.63;4994003;28;20200;-78
2021/07/16 05:30:56;;;;;;;4.38;3.95;;;;;;;23.78;49.10;95752.22;4995755;28;20176;-79
2021/07/16 05:33:21;;;;;;;5.63;5.22;;;;;;;22.33;54.94;95760.63;4992900;28;20706;-78
2021/07/16 05:35:46;;;;;;;5.13;4.72;;;;;;;21.32;57.31;95763.25;4994898;28;20175;-79
2021/07/16 05:38:12;;;;;;;6.00;5.50;;;;;;;20.49;61.08;95762.97;4993984;28;20168;-78
2021/07/16 05:40:38;;;;;;;7.15;6.45;;;;;;;19.39;64.65;95761.53;4993384;28;20207;-78
2021/07/16 05:43:08;;;;;;;7.63;6.90;;;;;;;18.25;69.18;95761.00;4990846;28;20294;-78
2021/07/16 05:45:33;;;;;;;8.52;7.78;;;;;;;17.82;71.00;95762.84;4993296;28;20179;-79
2021/07/16 05:48:00;;;;;;;24.30;9.48;;;;;;;17.18;74.96;95768.78;4977239;28;20210;-77
2021/07/16 05:50:26;;;;;;;10.02;9.00;;;;;;;17.12;76.10;95771.31;4978096;28;20674;-78
2021/07/16 05:52:51;;;;;;;38.70;11.05;;;;;;;16.77;78.30;95765.78;4992345;28;20204;-78
2021/07/16 05:55:16;;;;;;;87.80;13.32;;;;;;;16.49;79.89;95770.00;4993981;28;20188;-78
2021/07/16 05:57:42;;;;;;;208.70;18.13;;;;;;;16.37;80.77;95767.81;4993353;28;20183;-79
2021/07/16 06:00:08;;;;;;;127.22;15.65;;;;;;;16.39;80.91;95767.63;4993729;28;20180;-78
2021/07/16 06:02:33;;;;;;;16.65;12.45;;;;;;;16.49;81.19;95772.59;4991432;28;20183;-78
2021/07/16 06:04:58;;;;;;;79.00;14.25;;;;;;;16.55;80.18;95780.59;4995535;28;20263;-78
2021/07/16 06:07:24;;;;;;;38.33;14.95;;;;;;;16.45;81.22;95777.41;4976543;28;20212;-78
2021/07/16 06:09:49;;;;;;;120.63;16.15;;;;;;;16.48;80.98;95774.41;4971613;28;20232;-78
2021/07/16 06:12:15;;;;;;;51.63;14.75;;;;;;;16.52;81.06;95774.88;4996426;28;20180;-78
2021/07/16 06:14:40;;;;;;;14.88;13.27;;;;;;;16.70;80.47;95772.78;4979487;28;20241;-78
2021/07/16 06:17:05;;;;;;;14.63;12.60;;;;;;;16.83;80.03;95774.75;4998806;28;20698;-78
2021/07/16 06:19:31;;;;;;;14.10;11.07;;;;;;;17.44;77.76;95783.22;4996094;28;20195;-79
2021/07/16 06:21:56;;;;;;;11.93;10.27;;;;;;;17.60;75.06;95780.38;4996507;28;20551;-78
2021/07/16 06:24:22;;;;;;;11.30;10.18;;;;;;;17.47;74.66;95790.72;4996662;28;20195;-78
2021/07/16 06:26:47;;;;;;;12.90;11.55;;;;;;;17.30;76.13;95784.03;4981992;28;20179;-78
2021/07/16 06:29:12;;;;;;;12.10;10.88;;;;;;;17.14;76.48;95791.13;4999161;28;20574;-78
2021/07/16 06:31:37;;;;;;;12.55;11.25;;;;;;;17.23;76.60;95792.66;4998256;28;20183;-77
2021/07/16 06:34:03;;;;;;;14.35;11.45;;;;;;;17.12;77.13;95795.72;4996038;28;20192;-79
2021/07/16 06:36:29;;;;;;;12.93;11.45;;;;;;;17.04;77.44;95803.69;4980007;28;20179;-76
2021/07/16 06:38:54;;;;;;;13.00;11.52;;;;;;;16.75;78.66;95801.06;4995500;28;20184;-77
2021/07/16 06:41:19;;;;;;;13.20;11.90;;;;;;;16.81;78.89;95802.97;4996604;28;20187;-79
2021/07/16 06:43:45;;;;;;;12.43;11.18;;;;;;;17.20;76.95;95806.13;4996634;28;20215;-78
2021/07/16 06:46:12;;;;;;;13.52;11.52;;;;;;;17.08;76.89;95810.22;4996813;28;20198;-77
2021/07/16 06:48:38;;;;;;;14.32;12.80;;;;;;;16.88;76.96;95814.38;4980076;28;20215;-77
2021/07/16 06:51:03;;;;;;;15.20;11.85;;;;;;;17.35;76.22;95815.81;4976613;28;20180;-77
2021/07/16 06:53:29;;;;;;;14.15;12.55;;;;;;;17.46;75.98;95826.66;4999391;28;20217;-76
2021/07/16 06:55:54;;;;;;;13.43;12.02;;;;;;;17.21;77.20;95828.75;5012227;28;20179;-77
2021/07/16 06:58:19;;;;;;;12.23;11.00;;;;;;;17.02;76.57;95833.72;4997579;28;20644;-77
2021/07/16 07:00:46;;;;;;;12.18;10.98;;;;;;;16.80;77.48;95838.06;4996248;28;20211;-78
2021/07/16 07:03:11;;;;;;;12.95;11.65;;;;;;;16.68;77.93;95835.00;4980353;28;20656;-77
2021/07/16 07:05:36;;;;;;;14.30;12.70;;;;;;;16.59;78.61;95836.91;4993444;28;20176;-77
2021/07/16 07:08:03;;;;;;;14.15;12.65;;;;;;;16.82;77.93;95839.50;4992317;28;20310;-77
2021/07/16 07:10:28;;;;;;;12.95;11.73;;;;;;;17.03;77.81;95837.97;5001725;28;20187;-77
2021/07/16 07:12:53;;;;;;;13.68;12.07;;;;;;;17.43;76.90;95847.22;4974933;28;20920;-77
2021/07/16 07:15:19;;;;;;;13.77;12.38;;;;;;;17.80;75.93;95844.47;4995477;28;20559;-77
2021/07/16 07:17:44;;;;;;;12.65;11.45;;;;;;;17.77;75.93;95847.47;5007867;28;20405;-77
2021/07/16 07:20:11;;;;;;;14.55;12.85;;;;;;;17.63;75.46;95847.47;4992352;28;20199;-76
2021/07/16 07:22:37;;;;;;;15.70;14.18;;;;;;;17.56;76.11;95856.06;4990465;28;20184;-76
2021/07/16 07:25:03;;;;;;;14.15;12.75;;;;;;;17.91;75.35;95858.91;4988728;28;20203;-77
2021/07/16 07:27:28;;;;;;;13.57;12.18;;;;;;;18.04;75.40;95856.44;4992155;28;20838;-77
2021/07/16 07:29:53;;;;;;;14.23;12.57;;;;;;;17.82;75.48;95862.66;4995940;28;20191;-78
2021/07/16 07:32:20;;;;;;;12.88;11.68;;;;;;;17.93;74.67;95864.81;4995614;28;20253;-77
2021/07/16 07:34:45;;;;;;;13.63;12.20;;;;;;;17.98;74.67;95859.00;4997086;28;20480;-78
2021/07/16 07:37:11;;;;;;;12.90;11.63;;;;;;;18.12;75.25;95858.16;4990791;28;20207;-77
2021/07/16 07:39:36;;;;;;;13.57;12.20;;;;;;;18.21;75.15;95856.22;4978086;28;20177;-78
2021/07/16 07:42:01;;;;;;;13.02;11.55;;;;;;;18.42;73.38;95866.72;4994537;28;20184;-78
2021/07/16 07:44:26;;;;;;;13.43;12.15;;;;;;;18.13;73.92;95865.03;4997608;28;20683;-78
2021/07/16 07:46:52;;;;;;;12.75;11.27;;;;;;;18.07;74.56;95868.41;4997607;28;20875;-78
2021/07/16 07:49:17;;;;;;;13.90;12.60;;;;;;;18.04;74.77;95866.16;4996628;28;20227;-77
2021/07/16 07:51:43;;;;;;;14.68;13.07;;;;;;;17.71;75.66;95865.78;4995105;28;20198;-77
2021/07/16 07:54:09;;;;;;;13.55;12.25;;;;;;;18.20;73.91;95865.06;5000826;28;20210;-77
2021/07/16 07:56:34;;;;;;;12.10;10.95;;;;;;;18.44;72.89;95871.78;4999600;28;20202;-77
2021/07/16 07:59:01;;;;;;;13.32;12.10;;;;;;;18.24;73.55;95877.69;4997769;28;20182;-77
2021/07/16 08:01:26;;;;;;;15.13;13.63;;;;;;;17.86;75.00;95892.84;4997489;28;20266;-77
2021/07/16 08:03:52;;;;;;;14.00;12.70;;;;;;;17.80;75.17;95885.69;4997978;28;20228;-77
2021/07/16 08:06:17;;;;;;;13.45;12.13;;;;;;;18.03;74.18;95885.56;4999023;28;20196;-77
2021/07/16 08:08:43;;;;;;;13.32;11.75;;;;;;;18.26;72.79;95891.44;4998324;28;20266;-77
2021/07/16 08:11:08;;;;;;;11.88;10.77;;;;;;;19.33;69.04;95893.97;4997154;28;20270;-75
2021/07/16 08:13:34;;;;;;;10.05;9.07;;;;;;;19.51;66.99;95893.44;4996961;28;20254;-76
2021/07/16 08:16:01;;;;;;;11.35;10.25;;;;;;;19.78;64.94;95887.31;4997258;28;20184;-77
2021/07/16 08:18:26;;;;;;;10.77;9.77;;;;;;;21.09;62.96;95887.78;4996652;28;20195;-77
2021/07/16 08:20:51;;;;;;;10.00;9.10;;;;;;;21.05;61.44;95881.28;4995254;28;20770;-76
2021/07/16 08:23:17;;;;;;;10.95;9.95;;;;;;;20.22;63.53;95886.06;4997052;28;20192;-77
2021/07/16 08:25:43;;;;;;;11.48;10.38;;;;;;;20.49;64.58;95883.50;4997833;28;20553;-77
2021/07/16 08:28:08;;;;;;;10.60;9.60;;;;;;;20.78;65.19;95884.97;4997069;28;20227;-77
2021/07/16 08:30:33;;;;;;;8.75;8.05;;;;;;;21.00;62.20;95881.09;4996329;28;20195;-77
2021/07/16 08:32:59;;;;;;;8.35;7.55;;;;;;;21.67;58.94;95887.09;4994464;28;20211;-77
2021/07/16 08:35:24;;;;;;;8.77;7.90;;;;;;;21.31;60.37;95893.69;4995792;28;20184;-78
2021/07/16 08:37:50;;;;;;;9.98;8.45;;;;;;;21.16;61.27;95888.59;4998700;28;20926;-80
2021/07/16 08:40:15;;;;;;;8.98;8.18;;;;;;;20.97;61.42;95897.34;4995325;28;20176;-79
2021/07/16 08:42:41;;;;;;;8.95;8.25;;;;;;;21.01;61.52;95895.91;4994355;28;20218;-78
2021/07/16 08:45:08;;;;;;;8.68;7.78;;;;;;;21.42;60.35;95895.69;4980297;28;20180;-80
2021/07/16 08:47:35;;;;;;;10.13;9.13;;;;;;;21.18;61.31;95897.13;4979039;28;20214;-80
2021/07/16 08:50:04;;;;;;;9.10;7.43;;;;;;;21.02;60.48;95900.16;4976346;28;20184;-78
2021/07/16 08:52:30;;;;;;;9.93;9.02;;;;;;;20.60;61.63;95896.13;4959252;28;20251;-78
2021/07/16 08:54:56;;;;;;;9.35;8.55;;;;;;;20.92;61.40;95891.84;4978095;28;20191;-79
2021/07/16 08:57:24;;;;;;;10.48;9.55;;;;;;;19.78;64.11;95902.31;4996558;28;20232;-80
2021/07/16 08:59:50;;;;;;;8.10;7.40;;;;;;;20.12;62.17;95904.09;4979740;28;20176;-78
2021/07/16 09:02:15;;;;;;;7.60;6.80;;;;;;;20.15;63.04;95903.72;4995593;28;20230;-78
2021/07/16 09:04:41;;;;;;;8.25;7.55;;;;;;;20.57;61.25;95902.59;4994842;28;20230;-78
2021/07/16 09:07:07;;;;;;;7.05;6.30;;;;;;;21.08;59.42;95902.00;4994214;28;20188;-77
2021/07/16 09:09:37;;;;;;;7.22;6.43;;;;;;;20.64;58.92;95900.78;4977599;28;20597;-80
2021/07/16 09:12:13;;;;;;;6.70;6.10;;;;;;;19.98;61.79;95907.69;4993364;28;20172;-78
2021/07/16 09:14:39;;;;;;;7.45;6.60;;;;;;;19.66;62.54;95903.91;4992911;28;20299;-77
2021/07/16 09:17:10;;;;;;;6.57;5.68;;;;;;;19.79;63.32;95906.63;4993412;28;20220;-77
2021/07/16 09:19:47;;;;;;;6.70;6.03;;;;;;;19.47;65.13;95903.56;4995290;28;20192;-77
2021/07/16 09:22:15;;;;;;;6.95;6.30;;;;;;;19.48;67.13;95902.56;4977407;28;20632;-79
2021/07/16 09:24:50;;;;;;;6.32;5.80;;;;;;;20.14;62.92;95903.88;4994863;28;20246;-77
2021/07/16 09:27:35;;;;;;;6.03;5.43;;;;;;;20.61;61.06;95903.81;4996131;28;20218;-78
2021/07/16 09:30:18;;;;;;;6.15;5.60;;;;;;;20.29;62.66;95909.81;4980470;28;20179;-79
2021/07/16 09:33:05;;;;;;;5.43;4.85;;;;;;;20.88;59.71;95898.56;4979351;28;20269;-78
2021/07/16 09:35:39;;;;;;;6.03;5.05;;;;;;;20.92;59.70;95907.69;4992861;28;20195;-79
2021/07/16 09:38:09;;;;;;;6.93;5.93;;;;;;;21.58;58.44;95902.38;4991158;28;20571;-76
2021/07/16 09:40:39;;;;;;;6.72;6.13;;;;;;;20.96;59.60;95901.00;4995649;28;20202;-78
2021/07/16 09:43:10;;;;;;;6.88;6.05;;;;;;;20.72;61.20;95898.97;4994990;28;20227;-78
2021/07/16 09:45:38;;;;;;;6.28;5.68;;;;;;;21.03;61.12;95903.66;4995703;28;20181;-78
2021/07/16 09:48:24;;;;;;;6.53;5.30;;;;;;;20.78;61.31;95901.63;4975858;28;20362;-79
2021/07/16 09:51:09;;;;;;;6.13;5.47;;;;;;;20.91;59.87;95903.44;4994027;28;20188;-80
2021/07/16 09:54:00;;;;;;;5.10;4.70;;;;;;;21.00;59.21;95906.69;4984441;28;20207;-78
2021/07/16 09:56:34;;;;;;;5.20;4.75;;;;;;;20.98;59.06;95909.53;5013654;28;20203;-77
2021/07/16 09:59:06;;;;;;;4.82;4.43;;;;;;;20.87;59.65;95912.78;4993409;28;20654;-79
2021/07/16 10:01:33;;;;;;;5.28;4.78;;;;;;;20.68;59.52;95908.31;4992528;28;20180;-79
2021/07/16 10:03:59;;;;;;;5.13;3.53;;;;;;;20.85;59.89;95910.34;4992606;28;20196;-79
2021/07/16 10:06:26;;;;;;;4.15;2.88;;;;;;;20.71;58.05;95923.72;4978301;28;20176;-76
2021/07/16 10:08:53;;;;;;;3.10;2.90;;;;;;;20.06;59.84;95918.88;4993237;28;20208;-78
2021/07/16 10:11:20;;;;;;;3.53;2.88;;;;;;;20.29;58.40;95929.09;4992888;28;20230;-77
2021/07/16 10:13:45;;;;;;;2.80;2.55;;;;;;;20.22;57.79;95924.78;4993879;28;20191;-77
2021/07/16 10:16:13;;;;;;;3.20;2.90;;;;;;;20.36;59.36;95921.19;4994244;28;20183;-77
2021/07/16 10:18:39;;;;;;;2.70;2.50;;;;;;;20.52;57.48;95920.06;4990852;28;20694;-78
2021/07/16 10:21:04;;;;;;;4.80;2.60;;;;;;;20.83;56.68;95925.56;4975818;28;20268;-77
2021/07/16 10:23:31;;;;;;;2.70;2.50;;;;;;;21.66;56.05;95925.94;4991428;28;20286;-77
2021/07/16 10:25:57;;;;;;;4.10;3.80;;;;;;;21.23;56.73;95922.94;4991873;28;20184;-79
2021/07/16 10:28:29;;;;;;;3.40;3.10;;;;;;;21.86;55.90;95919.78;4994522;28;20246;-78
2021/07/16 10:30:55;;;;;;;2.88;2.67;;;;;;;21.24;55.80;95915.81;4992293;28;20267;-78
2021/07/16 10:33:38;;;;;;;3.10;2.80;;;;;;;22.22;54.11;95930.63;4993145;28;20508;-78
2021/07/16 10:36:09;;;;;;;3.42;3.15;;;;;;;22.29;53.90;95928.75;4976947;28;20180;-78
2021/07/16 10:38:34;;;;;;;3.50;2.53;;;;;;;22.31;53.04;95925.91;4976611;28;20203;-79
2021/07/16 10:41:00;;;;;;;2.30;2.10;;;;;;;21.49;51.72;95928.19;4986587;28;20188;-78
2021/07/16 10:43:25;;;;;;;2.78;2.58;;;;;;;21.49;54.54;95933.47;4991920;28;20215;-77
2021/07/16 10:45:51;;;;;;;1.98;1.88;;;;;;;21.78;53.95;95932.19;4993200;28;20175;-77
2021/07/16 10:48:22;;;;;;;2.33;2.13;;;;;;;21.21;54.72;95928.41;4993493;28;20739;-80
2021/07/16 10:50:50;;;;;;;3.35;1.90;;;;;;;20.64;54.62;95929.00;4990719;28;20195;-78
2021/07/16 10:53:18;;;;;;;3.30;1.90;;;;;;;20.58;55.76;95927.16;4996792;28;20238;-78
2021/07/16 10:55:43;;;;;;;2.90;2.45;;;;;;;20.85;56.04;95934.09;5013656;28;20195;-79
2021/07/16 10:58:27;;;;;;;3.95;2.25;;;;;;;21.25;56.95;95933.28;4997889;28;20206;-78
2021/07/16 11:01:06;;;;;;;3.30;2.40;;;;;;;21.40;55.45;95936.56;4991469;28;20219;-78
2021/07/16 11:03:39;;;;;;;1.98;1.88;;;;;;;21.34;54.27;95938.16;4993072;28;20676;-77
2021/07/16 11:06:06;;;;;;;3.63;2.20;;;;;;;21.09;53.37;95937.13;4976736;28;20597;-78
2021/07/16 11:08:35;;;;;;;2.63;2.10;;;;;;;20.91;54.74;95935.91;4992193;28;20565;-78
2021/07/16 11:11:03;;;;;;;2.20;2.10;;;;;;;20.84;54.96;95940.38;4992268;28;20184;-77
2021/07/16 11:13:38;;;;;;;2.15;2.05;;;;;;;21.05;55.03;95944.66;4974139;28;20625;-78
2021/07/16 11:16:15;;;;;;;2.63;2.42;;;;;;;20.81;55.63;95932.88;4993061;28;20195;-78
2021/07/16 11:18:50;;;;;;;5.43;3.30;;;;;;;20.51;56.75;95945.63;4993071;28;20179;-76
2021/07/16 11:21:36;;;;;;;2.80;2.60;;;;;;;21.10;56.27;95934.28;4992402;28;20545;-76
2021/07/16 11:24:02;;;;;;;2.70;2.50;;;;;;;20.79;57.09;95937.53;4990428;28;20736;-77
2021/07/16 11:26:27;;;;;;;2.83;2.53;;;;;;;20.72;56.44;95941.19;4993256;28;20179;-77
2021/07/16 11:28:52;;;;;;;3.03;2.83;;;;;;;20.68;57.19;95932.88;4991565;28;20573;-76